sensor_id;sensor_type;location;lat;lon;timestamp;P1;durP1;ratioP1;P2;durP2;ratioP2
18338;SDS011;9295;44.484;11.240;2023-03-20T00:02:16;81.10;;;56.60;;
18338;SDS011;9295;44.484;11.240;2023-03-20T00:04:47;78.10;;;56.10;;
18338;SDS011;9295;44.484;11.240;2023-03-20T00:07:16;75.90;;;55.03;;
18338;SDS011;9295;44.484;11.240;2023-03-20T00:09:44;86.53;;;58.80;;
18338;SDS011;9295;44.484;11.240;2023-03-20T00:12:13;81.80;;;56.13;;
18338;SDS011;9295;44.484;11.240;2023-03-20T00:14:46;81.57;;;57.20;;
18338;SDS011;9295;44.484;11.240;2023-03-20T00:17:16;84.97;;;55.13;;
18338;SDS011;9295;44.484;11.240;2023-03-20T00:19:47;81.40;;;56.33;;
18338;SDS011;9295;44.484;11.240;2023-03-20T00:22:15;76.87;;;57.07;;
18338;SDS011;9295;44.484;11.240;2023-03-20T00:24:44;78.17;;;53.70;;
18338;SDS011;9295;44.484;11.240;2023-03-20T00:27:13;77.93;;;53.67;;
18338;SDS011;9295;44.484;11.240;2023-03-20T00:29:43;80.67;;;56.17;;
18338;SDS011;9295;44.484;11.240;2023-03-20T00:32:13;84.83;;;60.03;;
18338;SDS011;9295;44.484;11.240;2023-03-20T00:34:42;84.10;;;59.00;;
18338;SDS011;9295;44.484;11.240;2023-03-20T00:37:11;88.77;;;61.50;;
18338;SDS011;9295;44.484;11.240;2023-03-20T00:39:40;90.43;;;61.43;;
18338;SDS011;9295;44.484;11.240;2023-03-20T00:42:11;88.07;;;62.77;;
18338;SDS011;9295;44.484;11.240;2023-03-20T00:44:47;90.90;;;63.60;;
18338;SDS011;9295;44.484;11.240;2023-03-20T00:47:25;91.97;;;61.97;;
18338;SDS011;9295;44.484;11.240;2023-03-20T00:49:55;90.33;;;63.60;;
18338;SDS011;9295;44.484;11.240;2023-03-20T00:52:24;91.73;;;63.10;;
18338;SDS011;9295;44.484;11.240;2023-03-20T00:54:53;93.00;;;61.90;;
18338;SDS011;9295;44.484;11.240;2023-03-20T00:57:22;92.10;;;59.90;;
18338;SDS011;9295;44.484;11.240;2023-03-20T00:59:53;90.87;;;60.40;;
18338;SDS011;9295;44.484;11.240;2023-03-20T01:02:28;91.40;;;60.30;;
18338;SDS011;9295;44.484;11.240;2023-03-20T01:04:58;85.63;;;60.70;;
18338;SDS011;9295;44.484;11.240;2023-03-20T01:07:27;90.17;;;63.23;;
18338;SDS011;9295;44.484;11.240;2023-03-20T01:09:56;96.50;;;64.83;;
18338;SDS011;9295;44.484;11.240;2023-03-20T01:12:24;81.73;;;60.37;;
18338;SDS011;9295;44.484;11.240;2023-03-20T01:14:54;92.10;;;62.80;;
18338;SDS011;9295;44.484;11.240;2023-03-20T01:17:25;91.97;;;62.63;;
18338;SDS011;9295;44.484;11.240;2023-03-20T01:19:56;92.13;;;59.50;;
18338;SDS011;9295;44.484;11.240;2023-03-20T01:22:25;90.83;;;59.03;;
18338;SDS011;9295;44.484;11.240;2023-03-20T01:24:53;90.70;;;61.00;;
18338;SDS011;9295;44.484;11.240;2023-03-20T01:27:41;84.40;;;57.30;;
18338;SDS011;9295;44.484;11.240;2023-03-20T01:30:15;90.87;;;59.87;;
18338;SDS011;9295;44.484;11.240;2023-03-20T01:32:47;86.03;;;59.93;;
18338;SDS011;9295;44.484;11.240;2023-03-20T01:35:19;85.87;;;61.00;;
18338;SDS011;9295;44.484;11.240;2023-03-20T01:37:49;89.27;;;58.17;;
18338;SDS011;9295;44.484;11.240;2023-03-20T01:40:29;91.40;;;57.30;;
18338;SDS011;9295;44.484;11.240;2023-03-20T01:43:01;88.07;;;55.07;;
18338;SDS011;9295;44.484;11.240;2023-03-20T01:45:31;92.40;;;54.30;;
18338;SDS011;9295;44.484;11.240;2023-03-20T01:48:11;91.60;;;52.40;;
18338;SDS011;9295;44.484;11.240;2023-03-20T01:50:43;88.40;;;52.43;;
18338;SDS011;9295;44.484;11.240;2023-03-20T01:53:14;87.60;;;51.70;;
18338;SDS011;9295;44.484;11.240;2023-03-20T01:55:53;89.13;;;51.30;;
18338;SDS011;9295;44.484;11.240;2023-03-20T01:58:30;88.30;;;51.50;;
18338;SDS011;9295;44.484;11.240;2023-03-20T02:01:03;86.30;;;51.17;;
18338;SDS011;9295;44.484;11.240;2023-03-20T02:03:34;85.63;;;49.37;;
18338;SDS011;9295;44.484;11.240;2023-03-20T02:06:16;80.70;;;46.10;;
18338;SDS011;9295;44.484;11.240;2023-03-20T02:09:13;76.90;;;44.07;;
18338;SDS011;9295;44.484;11.240;2023-03-20T02:11:44;74.40;;;43.87;;
18338;SDS011;9295;44.484;11.240;2023-03-20T02:14:15;71.53;;;44.10;;
18338;SDS011;9295;44.484;11.240;2023-03-20T02:16:55;77.43;;;43.20;;
18338;SDS011;9295;44.484;11.240;2023-03-20T02:19:49;75.40;;;44.73;;
18338;SDS011;9295;44.484;11.240;2023-03-20T02:22:37;73.17;;;41.87;;
18338;SDS011;9295;44.484;11.240;2023-03-20T02:26:00;75.30;;;41.37;;
18338;SDS011;9295;44.484;11.240;2023-03-20T02:29:16;76.17;;;41.53;;
18338;SDS011;9295;44.484;11.240;2023-03-20T02:38:48;68.80;;;41.83;;
18338;SDS011;9295;44.484;11.240;2023-03-20T02:41:26;56.67;;;35.63;;
18338;SDS011;9295;44.484;11.240;2023-03-20T02:44:00;58.07;;;36.10;;
18338;SDS011;9295;44.484;11.240;2023-03-20T02:46:35;54.17;;;34.30;;
18338;SDS011;9295;44.484;11.240;2023-03-20T02:49:22;57.90;;;36.07;;
18338;SDS011;9295;44.484;11.240;2023-03-20T02:51:59;60.67;;;34.63;;
18338;SDS011;9295;44.484;11.240;2023-03-20T02:54:36;59.30;;;35.03;;
18338;SDS011;9295;44.484;11.240;2023-03-20T02:57:12;58.07;;;34.30;;
18338;SDS011;9295;44.484;11.240;2023-03-20T02:59:47;61.53;;;35.10;;
18338;SDS011;9295;44.484;11.240;2023-03-20T03:02:25;52.10;;;32.70;;
18338;SDS011;9295;44.484;11.240;2023-03-20T03:05:01;56.80;;;33.20;;
18338;SDS011;9295;44.484;11.240;2023-03-20T03:07:35;56.20;;;32.87;;
18338;SDS011;9295;44.484;11.240;2023-03-20T03:10:09;56.47;;;31.70;;
18338;SDS011;9295;44.484;11.240;2023-03-20T03:12:44;52.67;;;30.30;;
18338;SDS011;9295;44.484;11.240;2023-03-20T03:15:16;49.83;;;30.60;;
18338;SDS011;9295;44.484;11.240;2023-03-20T03:17:47;50.37;;;29.23;;
18338;SDS011;9295;44.484;11.240;2023-03-20T03:20:19;55.40;;;33.07;;
18338;SDS011;9295;44.484;11.240;2023-03-20T03:22:51;49.70;;;30.10;;
18338;SDS011;9295;44.484;11.240;2023-03-20T03:25:22;57.33;;;33.50;;
18338;SDS011;9295;44.484;11.240;2023-03-20T03:27:59;58.33;;;33.20;;
18338;SDS011;9295;44.484;11.240;2023-03-20T03:30:31;54.50;;;33.40;;
18338;SDS011;9295;44.484;11.240;2023-03-20T03:33:12;54.80;;;32.07;;
18338;SDS011;9295;44.484;11.240;2023-03-20T03:35:47;53.50;;;31.60;;
18338;SDS011;9295;44.484;11.240;2023-03-20T03:38:25;52.07;;;30.13;;
18338;SDS011;9295;44.484;11.240;2023-03-20T03:41:08;49.37;;;28.83;;
18338;SDS011;9295;44.484;11.240;2023-03-20T03:43:48;44.87;;;27.63;;
18338;SDS011;9295;44.484;11.240;2023-03-20T03:46:23;51.43;;;29.80;;
18338;SDS011;9295;44.484;11.240;2023-03-20T03:48:56;49.57;;;29.13;;
18338;SDS011;9295;44.484;11.240;2023-03-20T03:51:27;61.17;;;33.13;;
18338;SDS011;9295;44.484;11.240;2023-03-20T03:54:05;53.87;;;32.27;;
18338;SDS011;9295;44.484;11.240;2023-03-20T03:56:39;56.90;;;33.53;;
18338;SDS011;9295;44.484;11.240;2023-03-20T03:59:11;58.40;;;34.73;;
18338;SDS011;9295;44.484;11.240;2023-03-20T04:01:45;56.60;;;33.57;;
18338;SDS011;9295;44.484;11.240;2023-03-20T04:04:16;64.83;;;34.90;;
18338;SDS011;9295;44.484;11.240;2023-03-20T04:06:47;59.93;;;33.87;;
18338;SDS011;9295;44.484;11.240;2023-03-20T04:09:16;66.13;;;36.50;;
18338;SDS011;9295;44.484;11.240;2023-03-20T04:11:47;57.87;;;33.77;;
18338;SDS011;9295;44.484;11.240;2023-03-20T04:14:18;56.70;;;33.07;;
18338;SDS011;9295;44.484;11.240;2023-03-20T04:16:47;59.43;;;33.57;;
18338;SDS011;9295;44.484;11.240;2023-03-20T04:19:16;58.30;;;33.57;;
18338;SDS011;9295;44.484;11.240;2023-03-20T04:21:44;63.93;;;35.77;;
18338;SDS011;9295;44.484;11.240;2023-03-20T04:24:14;58.83;;;33.57;;
18338;SDS011;9295;44.484;11.240;2023-03-20T04:26:42;62.93;;;34.90;;
18338;SDS011;9295;44.484;11.240;2023-03-20T04:29:13;66.63;;;35.87;;
18338;SDS011;9295;44.484;11.240;2023-03-20T04:31:53;62.93;;;35.10;;
18338;SDS011;9295;44.484;11.240;2023-03-20T04:34:41;62.10;;;34.67;;
18338;SDS011;9295;44.484;11.240;2023-03-20T04:37:26;62.00;;;35.50;;
18338;SDS011;9295;44.484;11.240;2023-03-20T04:40:04;62.50;;;34.67;;
18338;SDS011;9295;44.484;11.240;2023-03-20T04:42:34;61.73;;;36.07;;
18338;SDS011;9295;44.484;11.240;2023-03-20T04:45:07;61.20;;;34.90;;
18338;SDS011;9295;44.484;11.240;2023-03-20T04:47:37;54.47;;;32.80;;
18338;SDS011;9295;44.484;11.240;2023-03-20T04:50:06;54.37;;;31.67;;
18338;SDS011;9295;44.484;11.240;2023-03-20T04:52:36;50.47;;;31.80;;
18338;SDS011;9295;44.484;11.240;2023-03-20T04:55:05;44.10;;;29.53;;
18338;SDS011;9295;44.484;11.240;2023-03-20T04:57:35;44.40;;;29.47;;
18338;SDS011;9295;44.484;11.240;2023-03-20T05:00:04;44.63;;;31.23;;
18338;SDS011;9295;44.484;11.240;2023-03-20T05:02:36;42.40;;;29.40;;
18338;SDS011;9295;44.484;11.240;2023-03-20T05:05:06;46.73;;;31.80;;
18338;SDS011;9295;44.484;11.240;2023-03-20T05:07:35;50.23;;;32.57;;
18338;SDS011;9295;44.484;11.240;2023-03-20T05:10:07;50.73;;;31.47;;
18338;SDS011;9295;44.484;11.240;2023-03-20T05:12:55;51.33;;;34.60;;
18338;SDS011;9295;44.484;11.240;2023-03-20T05:15:43;53.40;;;35.43;;
18338;SDS011;9295;44.484;11.240;2023-03-20T05:18:34;52.30;;;34.20;;
18338;SDS011;9295;44.484;11.240;2023-03-20T05:21:22;57.57;;;36.70;;
18338;SDS011;9295;44.484;11.240;2023-03-20T05:24:10;69.43;;;37.33;;
18338;SDS011;9295;44.484;11.240;2023-03-20T05:26:55;54.00;;;35.80;;
18338;SDS011;9295;44.484;11.240;2023-03-20T05:29:42;54.10;;;33.30;;
18338;SDS011;9295;44.484;11.240;2023-03-20T05:32:21;59.40;;;34.97;;
18338;SDS011;9295;44.484;11.240;2023-03-20T05:35:13;59.53;;;36.80;;
18338;SDS011;9295;44.484;11.240;2023-03-20T05:38:01;58.77;;;36.37;;
18338;SDS011;9295;44.484;11.240;2023-03-20T05:40:46;59.60;;;36.60;;
18338;SDS011;9295;44.484;11.240;2023-03-20T05:43:38;60.40;;;36.53;;
18338;SDS011;9295;44.484;11.240;2023-03-20T05:46:20;59.77;;;36.37;;
18338;SDS011;9295;44.484;11.240;2023-03-20T05:49:20;61.43;;;35.03;;
18338;SDS011;9295;44.484;11.240;2023-03-20T05:52:11;63.50;;;36.40;;
18338;SDS011;9295;44.484;11.240;2023-03-20T05:55:02;58.00;;;33.80;;
18338;SDS011;9295;44.484;11.240;2023-03-20T05:57:46;63.87;;;37.33;;
18338;SDS011;9295;44.484;11.240;2023-03-20T06:00:33;54.90;;;34.60;;
18338;SDS011;9295;44.484;11.240;2023-03-20T06:03:22;52.57;;;32.70;;
18338;SDS011;9295;44.484;11.240;2023-03-20T06:06:03;59.63;;;35.10;;
18338;SDS011;9295;44.484;11.240;2023-03-20T06:08:33;59.07;;;34.50;;
18338;SDS011;9295;44.484;11.240;2023-03-20T06:11:04;57.43;;;35.07;;
18338;SDS011;9295;44.484;11.240;2023-03-20T06:13:35;61.70;;;35.13;;
18338;SDS011;9295;44.484;11.240;2023-03-20T06:16:05;57.00;;;34.27;;
18338;SDS011;9295;44.484;11.240;2023-03-20T06:18:35;54.77;;;32.60;;
18338;SDS011;9295;44.484;11.240;2023-03-20T06:21:07;53.37;;;31.07;;
18338;SDS011;9295;44.484;11.240;2023-03-20T06:23:38;55.30;;;31.53;;
18338;SDS011;9295;44.484;11.240;2023-03-20T06:26:07;58.30;;;32.90;;
18338;SDS011;9295;44.484;11.240;2023-03-20T06:29:06;58.47;;;30.40;;
18338;SDS011;9295;44.484;11.240;2023-03-20T06:31:35;59.23;;;32.40;;
18338;SDS011;9295;44.484;11.240;2023-03-20T06:34:08;57.23;;;30.83;;
18338;SDS011;9295;44.484;11.240;2023-03-20T06:36:43;59.23;;;30.47;;
18338;SDS011;9295;44.484;11.240;2023-03-20T06:39:18;65.33;;;35.17;;
18338;SDS011;9295;44.484;11.240;2023-03-20T06:41:47;61.97;;;34.73;;
18338;SDS011;9295;44.484;11.240;2023-03-20T06:44:17;66.23;;;36.40;;
18338;SDS011;9295;44.484;11.240;2023-03-20T06:47:08;80.50;;;40.67;;
18338;SDS011;9295;44.484;11.240;2023-03-20T06:49:37;83.27;;;42.23;;
18338;SDS011;9295;44.484;11.240;2023-03-20T06:52:08;82.53;;;42.80;;
18338;SDS011;9295;44.484;11.240;2023-03-20T06:54:40;89.60;;;45.23;;
18338;SDS011;9295;44.484;11.240;2023-03-20T06:57:08;91.50;;;47.70;;
18338;SDS011;9295;44.484;11.240;2023-03-20T06:59:42;121.07;;;49.47;;
18338;SDS011;9295;44.484;11.240;2023-03-20T07:02:28;164.73;;;47.80;;
18338;SDS011;9295;44.484;11.240;2023-03-20T07:04:57;97.03;;;49.27;;
18338;SDS011;9295;44.484;11.240;2023-03-20T07:07:28;97.77;;;50.17;;
18338;SDS011;9295;44.484;11.240;2023-03-20T07:09:57;171.73;;;47.97;;
18338;SDS011;9295;44.484;11.240;2023-03-20T07:12:26;114.10;;;47.63;;
18338;SDS011;9295;44.484;11.240;2023-03-20T07:14:58;119.30;;;48.67;;
18338;SDS011;9295;44.484;11.240;2023-03-20T07:17:28;107.73;;;50.00;;
18338;SDS011;9295;44.484;11.240;2023-03-20T07:19:56;114.83;;;49.60;;
18338;SDS011;9295;44.484;11.240;2023-03-20T07:22:26;115.60;;;50.60;;
18338;SDS011;9295;44.484;11.240;2023-03-20T07:25:35;104.60;;;48.20;;
18338;SDS011;9295;44.484;11.240;2023-03-20T07:28:13;134.40;;;49.23;;
18338;SDS011;9295;44.484;11.240;2023-03-20T07:30:48;123.03;;;51.13;;
18338;SDS011;9295;44.484;11.240;2023-03-20T07:33:17;121.83;;;50.43;;
18338;SDS011;9295;44.484;11.240;2023-03-20T07:35:50;109.03;;;50.10;;
18338;SDS011;9295;44.484;11.240;2023-03-20T07:38:21;116.10;;;51.27;;
18338;SDS011;9295;44.484;11.240;2023-03-20T07:41:02;111.10;;;50.83;;
18338;SDS011;9295;44.484;11.240;2023-03-20T07:43:33;110.73;;;48.87;;
18338;SDS011;9295;44.484;11.240;2023-03-20T07:46:22;91.23;;;46.30;;
18338;SDS011;9295;44.484;11.240;2023-03-20T07:48:52;96.13;;;46.70;;
18338;SDS011;9295;44.484;11.240;2023-03-20T07:51:22;64.37;;;40.07;;
18338;SDS011;9295;44.484;11.240;2023-03-20T07:53:52;67.33;;;38.60;;
18338;SDS011;9295;44.484;11.240;2023-03-20T07:56:21;61.03;;;37.03;;
18338;SDS011;9295;44.484;11.240;2023-03-20T07:58:50;62.40;;;40.03;;
18338;SDS011;9295;44.484;11.240;2023-03-20T08:01:18;69.40;;;42.53;;
18338;SDS011;9295;44.484;11.240;2023-03-20T08:03:47;75.50;;;42.70;;
18338;SDS011;9295;44.484;11.240;2023-03-20T08:06:16;70.60;;;42.30;;
18338;SDS011;9295;44.484;11.240;2023-03-20T08:08:44;76.57;;;43.00;;
18338;SDS011;9295;44.484;11.240;2023-03-20T08:11:14;84.70;;;43.10;;
18338;SDS011;9295;44.484;11.240;2023-03-20T08:13:43;82.50;;;44.90;;
18338;SDS011;9295;44.484;11.240;2023-03-20T08:16:12;89.73;;;45.03;;
18338;SDS011;9295;44.484;11.240;2023-03-20T08:18:40;88.80;;;43.43;;
18338;SDS011;9295;44.484;11.240;2023-03-20T08:21:09;73.07;;;40.07;;
18338;SDS011;9295;44.484;11.240;2023-03-20T08:23:37;72.83;;;39.50;;
18338;SDS011;9295;44.484;11.240;2023-03-20T08:26:06;79.67;;;39.00;;
18338;SDS011;9295;44.484;11.240;2023-03-20T08:28:36;70.83;;;34.63;;
18338;SDS011;9295;44.484;11.240;2023-03-20T08:31:13;54.77;;;33.73;;
18338;SDS011;9295;44.484;11.240;2023-03-20T08:33:43;60.57;;;35.00;;
18338;SDS011;9295;44.484;11.240;2023-03-20T08:36:12;60.13;;;33.60;;
18338;SDS011;9295;44.484;11.240;2023-03-20T08:38:41;70.00;;;36.03;;
18338;SDS011;9295;44.484;11.240;2023-03-20T08:41:10;69.73;;;37.97;;
18338;SDS011;9295;44.484;11.240;2023-03-20T08:43:40;71.80;;;39.17;;
18338;SDS011;9295;44.484;11.240;2023-03-20T08:46:09;72.63;;;35.00;;
18338;SDS011;9295;44.484;11.240;2023-03-20T08:48:37;61.70;;;34.27;;
18338;SDS011;9295;44.484;11.240;2023-03-20T08:51:06;69.90;;;34.83;;
18338;SDS011;9295;44.484;11.240;2023-03-20T08:53:35;70.00;;;31.53;;
18338;SDS011;9295;44.484;11.240;2023-03-20T08:56:03;63.20;;;32.33;;
18338;SDS011;9295;44.484;11.240;2023-03-20T08:58:33;56.43;;;29.90;;
18338;SDS011;9295;44.484;11.240;2023-03-20T09:01:04;60.13;;;29.70;;
18338;SDS011;9295;44.484;11.240;2023-03-20T09:03:34;55.37;;;31.70;;
18338;SDS011;9295;44.484;11.240;2023-03-20T09:06:04;56.43;;;29.50;;
18338;SDS011;9295;44.484;11.240;2023-03-20T09:08:33;50.07;;;29.20;;
18338;SDS011;9295;44.484;11.240;2023-03-20T09:11:03;31.47;;;22.20;;
18338;SDS011;9295;44.484;11.240;2023-03-20T09:13:33;35.90;;;22.27;;
18338;SDS011;9295;44.484;11.240;2023-03-20T09:16:01;36.90;;;21.20;;
18338;SDS011;9295;44.484;11.240;2023-03-20T09:18:32;28.93;;;20.43;;
18338;SDS011;9295;44.484;11.240;2023-03-20T09:21:01;31.83;;;21.53;;
18338;SDS011;9295;44.484;11.240;2023-03-20T09:23:29;32.70;;;24.00;;
18338;SDS011;9295;44.484;11.240;2023-03-20T09:25:58;36.57;;;25.83;;
18338;SDS011;9295;44.484;11.240;2023-03-20T09:28:27;30.50;;;23.47;;
18338;SDS011;9295;44.484;11.240;2023-03-20T09:30:56;37.63;;;24.97;;
18338;SDS011;9295;44.484;11.240;2023-03-20T09:33:26;28.97;;;21.27;;
18338;SDS011;9295;44.484;11.240;2023-03-20T09:35:55;32.80;;;23.47;;
18338;SDS011;9295;44.484;11.240;2023-03-20T09:38:24;31.53;;;22.97;;
18338;SDS011;9295;44.484;11.240;2023-03-20T09:40:53;38.07;;;27.43;;
18338;SDS011;9295;44.484;11.240;2023-03-20T09:43:28;42.63;;;27.90;;
18338;SDS011;9295;44.484;11.240;2023-03-20T09:46:08;38.13;;;26.53;;
18338;SDS011;9295;44.484;11.240;2023-03-20T09:48:48;36.90;;;26.90;;
18338;SDS011;9295;44.484;11.240;2023-03-20T09:51:25;38.80;;;26.57;;
18338;SDS011;9295;44.484;11.240;2023-03-20T09:54:02;38.93;;;25.80;;
18338;SDS011;9295;44.484;11.240;2023-03-20T09:56:34;34.43;;;23.50;;
18338;SDS011;9295;44.484;11.240;2023-03-20T09:59:04;31.50;;;23.23;;
18338;SDS011;9295;44.484;11.240;2023-03-20T10:01:35;39.73;;;24.40;;
18338;SDS011;9295;44.484;11.240;2023-03-20T10:04:12;33.37;;;22.97;;
18338;SDS011;9295;44.484;11.240;2023-03-20T10:06:41;29.77;;;22.20;;
18338;SDS011;9295;44.484;11.240;2023-03-20T10:09:11;35.33;;;24.63;;
18338;SDS011;9295;44.484;11.240;2023-03-20T10:14:36;36.90;;;22.87;;
18338;SDS011;9295;44.484;11.240;2023-03-20T10:17:15;36.83;;;23.73;;
18338;SDS011;9295;44.484;11.240;2023-03-20T10:19:55;32.97;;;21.77;;
18338;SDS011;9295;44.484;11.240;2023-03-20T10:22:26;30.87;;;21.50;;
18338;SDS011;9295;44.484;11.240;2023-03-20T10:25:02;34.73;;;22.90;;
18338;SDS011;9295;44.484;11.240;2023-03-20T10:27:33;36.13;;;23.67;;
18338;SDS011;9295;44.484;11.240;2023-03-20T10:30:11;32.70;;;23.33;;
18338;SDS011;9295;44.484;11.240;2023-03-20T10:32:50;39.03;;;23.13;;
18338;SDS011;9295;44.484;11.240;2023-03-20T10:35:30;34.20;;;23.83;;
18338;SDS011;9295;44.484;11.240;2023-03-20T10:38:10;35.67;;;23.30;;
18338;SDS011;9295;44.484;11.240;2023-03-20T10:40:45;36.90;;;23.03;;
18338;SDS011;9295;44.484;11.240;2023-03-20T10:43:14;31.87;;;21.97;;
18338;SDS011;9295;44.484;11.240;2023-03-20T10:45:47;36.10;;;22.63;;
18338;SDS011;9295;44.484;11.240;2023-03-20T10:48:20;41.10;;;25.33;;
18338;SDS011;9295;44.484;11.240;2023-03-20T10:50:54;43.83;;;26.63;;
18338;SDS011;9295;44.484;11.240;2023-03-20T10:53:30;43.60;;;25.33;;
18338;SDS011;9295;44.484;11.240;2023-03-20T10:56:03;50.53;;;26.77;;
18338;SDS011;9295;44.484;11.240;2023-03-20T10:58:34;45.23;;;25.23;;
18338;SDS011;9295;44.484;11.240;2023-03-20T11:01:06;37.03;;;23.50;;
18338;SDS011;9295;44.484;11.240;2023-03-20T11:03:35;35.23;;;23.40;;
18338;SDS011;9295;44.484;11.240;2023-03-20T11:06:09;37.47;;;21.47;;
18338;SDS011;9295;44.484;11.240;2023-03-20T11:08:46;29.80;;;19.37;;
18338;SDS011;9295;44.484;11.240;2023-03-20T11:11:21;30.60;;;19.90;;
18338;SDS011;9295;44.484;11.240;2023-03-20T11:13:51;35.40;;;21.30;;
18338;SDS011;9295;44.484;11.240;2023-03-20T11:16:20;36.10;;;20.33;;
18338;SDS011;9295;44.484;11.240;2023-03-20T11:18:51;34.67;;;21.40;;
18338;SDS011;9295;44.484;11.240;2023-03-20T11:21:23;37.23;;;22.10;;
18338;SDS011;9295;44.484;11.240;2023-03-20T11:23:54;37.27;;;21.90;;
18338;SDS011;9295;44.484;11.240;2023-03-20T11:26:31;33.80;;;20.40;;
18338;SDS011;9295;44.484;11.240;2023-03-20T11:29:04;34.03;;;20.30;;
18338;SDS011;9295;44.484;11.240;2023-03-20T11:31:34;29.37;;;18.20;;
18338;SDS011;9295;44.484;11.240;2023-03-20T11:34:18;29.67;;;20.13;;
18338;SDS011;9295;44.484;11.240;2023-03-20T11:36:54;31.30;;;19.17;;
18338;SDS011;9295;44.484;11.240;2023-03-20T11:39:35;27.87;;;17.60;;
18338;SDS011;9295;44.484;11.240;2023-03-20T11:42:20;28.43;;;18.00;;
18338;SDS011;9295;44.484;11.240;2023-03-20T11:44:58;30.13;;;18.10;;
18338;SDS011;9295;44.484;11.240;2023-03-20T11:47:30;27.53;;;17.30;;
18338;SDS011;9295;44.484;11.240;2023-03-20T11:50:00;27.57;;;17.93;;
18338;SDS011;9295;44.484;11.240;2023-03-20T11:52:32;33.07;;;19.50;;
18338;SDS011;9295;44.484;11.240;2023-03-20T11:55:04;30.43;;;18.10;;
18338;SDS011;9295;44.484;11.240;2023-03-20T11:57:47;26.50;;;16.20;;
18338;SDS011;9295;44.484;11.240;2023-03-20T12:00:17;26.80;;;17.37;;
18338;SDS011;9295;44.484;11.240;2023-03-20T12:02:48;27.13;;;17.00;;
18338;SDS011;9295;44.484;11.240;2023-03-20T12:05:18;29.00;;;18.90;;
18338;SDS011;9295;44.484;11.240;2023-03-20T12:07:57;28.07;;;19.50;;
18338;SDS011;9295;44.484;11.240;2023-03-20T12:10:30;41.73;;;25.70;;
18338;SDS011;9295;44.484;11.240;2023-03-20T12:13:03;38.03;;;24.50;;
18338;SDS011;9295;44.484;11.240;2023-03-20T12:15:38;27.47;;;18.57;;
18338;SDS011;9295;44.484;11.240;2023-03-20T12:18:11;27.90;;;18.60;;
18338;SDS011;9295;44.484;11.240;2023-03-20T12:20:43;29.50;;;18.30;;
18338;SDS011;9295;44.484;11.240;2023-03-20T12:23:21;30.30;;;17.70;;
18338;SDS011;9295;44.484;11.240;2023-03-20T12:25:58;27.80;;;16.33;;
18338;SDS011;9295;44.484;11.240;2023-03-20T12:28:35;20.83;;;13.93;;
18338;SDS011;9295;44.484;11.240;2023-03-20T12:31:15;24.57;;;14.47;;
18338;SDS011;9295;44.484;11.240;2023-03-20T12:33:52;25.40;;;16.60;;
18338;SDS011;9295;44.484;11.240;2023-03-20T12:36:28;21.90;;;13.53;;
18338;SDS011;9295;44.484;11.240;2023-03-20T12:39:02;20.53;;;13.70;;
18338;SDS011;9295;44.484;11.240;2023-03-20T12:41:37;18.20;;;12.40;;
18338;SDS011;9295;44.484;11.240;2023-03-20T12:44:19;23.03;;;12.43;;
18338;SDS011;9295;44.484;11.240;2023-03-20T12:46:58;20.53;;;13.00;;
18338;SDS011;9295;44.484;11.240;2023-03-20T12:49:37;18.37;;;11.90;;
18338;SDS011;9295;44.484;11.240;2023-03-20T12:52:14;20.60;;;13.13;;
18338;SDS011;9295;44.484;11.240;2023-03-20T13:00:46;17.57;;;12.07;;
18338;SDS011;9295;44.484;11.240;2023-03-20T13:03:33;16.60;;;12.53;;
18338;SDS011;9295;44.484;11.240;2023-03-20T13:06:16;20.80;;;14.40;;
18338;SDS011;9295;44.484;11.240;2023-03-20T13:08:53;20.83;;;14.23;;
18338;SDS011;9295;44.484;11.240;2023-03-20T13:11:43;20.50;;;13.70;;
18338;SDS011;9295;44.484;11.240;2023-03-20T13:14:17;21.70;;;14.30;;
18338;SDS011;9295;44.484;11.240;2023-03-20T13:16:50;22.60;;;15.77;;
18338;SDS011;9295;44.484;11.240;2023-03-20T13:19:25;20.80;;;14.80;;
18338;SDS011;9295;44.484;11.240;2023-03-20T13:22:01;21.20;;;14.73;;
18338;SDS011;9295;44.484;11.240;2023-03-20T13:24:35;24.77;;;14.57;;
18338;SDS011;9295;44.484;11.240;2023-03-20T13:27:15;22.17;;;14.70;;
18338;SDS011;9295;44.484;11.240;2023-03-20T13:29:55;20.77;;;15.20;;
18338;SDS011;9295;44.484;11.240;2023-03-20T13:32:34;22.33;;;14.33;;
18338;SDS011;9295;44.484;11.240;2023-03-20T13:35:17;17.83;;;12.23;;
18338;SDS011;9295;44.484;11.240;2023-03-20T13:37:50;20.90;;;13.60;;
18338;SDS011;9295;44.484;11.240;2023-03-20T13:40:23;20.20;;;13.70;;
18338;SDS011;9295;44.484;11.240;2023-03-20T13:42:57;20.90;;;14.53;;
18338;SDS011;9295;44.484;11.240;2023-03-20T13:45:34;23.10;;;14.97;;
18338;SDS011;9295;44.484;11.240;2023-03-20T13:48:08;21.10;;;13.77;;
18338;SDS011;9295;44.484;11.240;2023-03-20T13:50:50;17.07;;;12.13;;
18338;SDS011;9295;44.484;11.240;2023-03-20T13:53:28;16.87;;;11.90;;
18338;SDS011;9295;44.484;11.240;2023-03-20T13:56:06;16.00;;;11.70;;
18338;SDS011;9295;44.484;11.240;2023-03-20T13:58:44;17.67;;;13.07;;
18338;SDS011;9295;44.484;11.240;2023-03-20T14:01:28;16.60;;;12.83;;
18338;SDS011;9295;44.484;11.240;2023-03-20T14:04:07;19.37;;;14.30;;
18338;SDS011;9295;44.484;11.240;2023-03-20T14:06:44;22.43;;;14.93;;
18338;SDS011;9295;44.484;11.240;2023-03-20T14:09:30;25.73;;;15.60;;
18338;SDS011;9295;44.484;11.240;2023-03-20T14:12:01;26.73;;;14.73;;
18338;SDS011;9295;44.484;11.240;2023-03-20T14:14:39;23.33;;;16.17;;
18338;SDS011;9295;44.484;11.240;2023-03-20T14:17:17;23.13;;;17.07;;
18338;SDS011;9295;44.484;11.240;2023-03-20T14:19:48;21.93;;;15.23;;
18338;SDS011;9295;44.484;11.240;2023-03-20T14:22:19;21.37;;;15.40;;
18338;SDS011;9295;44.484;11.240;2023-03-20T14:24:50;23.13;;;15.30;;
18338;SDS011;9295;44.484;11.240;2023-03-20T14:27:24;34.20;;;15.87;;
18338;SDS011;9295;44.484;11.240;2023-03-20T14:33:23;25.40;;;19.20;;
18338;SDS011;9295;44.484;11.240;2023-03-20T14:38:56;26.10;;;18.33;;
18338;SDS011;9295;44.484;11.240;2023-03-20T14:41:34;24.70;;;19.40;;
18338;SDS011;9295;44.484;11.240;2023-03-20T14:44:19;27.07;;;19.87;;
18338;SDS011;9295;44.484;11.240;2023-03-20T14:46:55;34.57;;;21.80;;
18338;SDS011;9295;44.484;11.240;2023-03-20T14:49:42;27.37;;;19.40;;
18338;SDS011;9295;44.484;11.240;2023-03-20T14:52:26;24.30;;;17.83;;
18338;SDS011;9295;44.484;11.240;2023-03-20T14:55:14;24.40;;;19.40;;
18338;SDS011;9295;44.484;11.240;2023-03-20T14:57:56;25.50;;;16.93;;
18338;SDS011;9295;44.484;11.240;2023-03-20T15:00:32;26.17;;;18.73;;
18338;SDS011;9295;44.484;11.240;2023-03-20T15:03:05;25.60;;;17.30;;
18338;SDS011;9295;44.484;11.240;2023-03-20T15:05:36;25.33;;;18.30;;
18338;SDS011;9295;44.484;11.240;2023-03-20T15:08:08;23.67;;;16.27;;
18338;SDS011;9295;44.484;11.240;2023-03-20T15:10:43;25.37;;;18.70;;
18338;SDS011;9295;44.484;11.240;2023-03-20T15:13:14;24.33;;;17.63;;
18338;SDS011;9295;44.484;11.240;2023-03-20T15:15:51;24.53;;;20.00;;
18338;SDS011;9295;44.484;11.240;2023-03-20T15:18:23;27.43;;;20.77;;
18338;SDS011;9295;44.484;11.240;2023-03-20T15:20:54;28.40;;;20.87;;
18338;SDS011;9295;44.484;11.240;2023-03-20T15:23:24;29.23;;;21.57;;
18338;SDS011;9295;44.484;11.240;2023-03-20T15:25:52;36.00;;;22.87;;
18338;SDS011;9295;44.484;11.240;2023-03-20T15:28:21;30.17;;;21.70;;